<?xml version="1.0" encoding="UTF-8" standalone="no" ?>
<gpx xmlns="http://www.topografix.com/GPX/1/1" xmlns:xsi="http://www.w3.org/2001/XMLSchema-instance" xsi:schemaLocation="http://www.topografix.com/GPX/1/1 http://www.topografix.com/GPX/1/1/gpx.xsd" version="1.1" creator="VisuGPX - https://www.visugpx.com">
  <metadata>
    <name>Sortie Migration des rapaces au Mortis</name>
    <desc><![CDATA[Trace AlpineQuest 28/08/2016 10:08:10]]></desc>
  </metadata>
  <wpt lat="42.89868" lon="0.77553">
    <ele>1870</ele>
    <name><![CDATA[Au sommet]]></name>
  </wpt>
  <wpt lat="42.89868" lon="0.77553">
    <ele>1870</ele>
    <name><![CDATA[Sommet]]></name>
  </wpt>
  <trk>
    <name><![CDATA[LPO Mourtis]]></name>
    <trkseg>
      <trkpt lat="42.91181" lon="0.76531">
        <ele>1538</ele>
        <time>2016-08-28T08:08:10Z</time>
      </trkpt>
      <trkpt lat="42.91186" lon="0.76522">
        <ele>1540</ele>
        <time>2016-08-28T08:08:29Z</time>
      </trkpt>
      <trkpt lat="42.91181" lon="0.76531">
        <ele>1538</ele>
        <time>2016-08-28T08:08:39Z</time>
      </trkpt>
      <trkpt lat="42.91176" lon="0.76539">
        <ele>1540</ele>
        <time>2016-08-28T08:09:04Z</time>
      </trkpt>
      <trkpt lat="42.91169" lon="0.7655">
        <ele>1536</ele>
        <time>2016-08-28T08:09:20Z</time>
      </trkpt>
      <trkpt lat="42.91164" lon="0.76558">
        <ele>1533</ele>
        <time>2016-08-28T08:09:24Z</time>
      </trkpt>
      <trkpt lat="42.91157" lon="0.76562">
        <ele>1526</ele>
        <time>2016-08-28T08:09:35Z</time>
      </trkpt>
      <trkpt lat="42.91151" lon="0.76565">
        <ele>1516</ele>
        <time>2016-08-28T08:11:48Z</time>
      </trkpt>
      <trkpt lat="42.91143" lon="0.76562">
        <ele>1518</ele>
        <time>2016-08-28T08:12:38Z</time>
      </trkpt>
      <trkpt lat="42.91135" lon="0.76564">
        <ele>1516</ele>
        <time>2016-08-28T08:12:54Z</time>
      </trkpt>
      <trkpt lat="42.91129" lon="0.7657">
        <ele>1516</ele>
        <time>2016-08-28T08:13:03Z</time>
      </trkpt>
      <trkpt lat="42.91123" lon="0.76578">
        <ele>1517</ele>
        <time>2016-08-28T08:13:11Z</time>
      </trkpt>
      <trkpt lat="42.9112" lon="0.76587">
        <ele>1516</ele>
        <time>2016-08-28T08:13:18Z</time>
      </trkpt>
      <trkpt lat="42.91114" lon="0.76595">
        <ele>1515</ele>
        <time>2016-08-28T08:13:26Z</time>
      </trkpt>
      <trkpt lat="42.91111" lon="0.76604">
        <ele>1516</ele>
        <time>2016-08-28T08:13:33Z</time>
      </trkpt>
      <trkpt lat="42.91107" lon="0.76612">
        <ele>1515</ele>
        <time>2016-08-28T08:13:42Z</time>
      </trkpt>
      <trkpt lat="42.91103" lon="0.76622">
        <ele>1516</ele>
        <time>2016-08-28T08:13:50Z</time>
      </trkpt>
      <trkpt lat="42.91098" lon="0.7663">
        <ele>1517</ele>
        <time>2016-08-28T08:13:58Z</time>
      </trkpt>
      <trkpt lat="42.91094" lon="0.7664">
        <ele>1520</ele>
        <time>2016-08-28T08:14:07Z</time>
      </trkpt>
      <trkpt lat="42.9109" lon="0.76648">
        <ele>1520</ele>
        <time>2016-08-28T08:14:16Z</time>
      </trkpt>
      <trkpt lat="42.91086" lon="0.76656">
        <ele>1523</ele>
        <time>2016-08-28T08:14:28Z</time>
      </trkpt>
      <trkpt lat="42.91083" lon="0.76665">
        <ele>1524</ele>
        <time>2016-08-28T08:14:41Z</time>
      </trkpt>
      <trkpt lat="42.91079" lon="0.76674">
        <ele>1526</ele>
        <time>2016-08-28T08:14:53Z</time>
      </trkpt>
      <trkpt lat="42.91074" lon="0.76682">
        <ele>1530</ele>
        <time>2016-08-28T08:15:06Z</time>
      </trkpt>
      <trkpt lat="42.91072" lon="0.76691">
        <ele>1530</ele>
        <time>2016-08-28T08:15:15Z</time>
      </trkpt>
      <trkpt lat="42.91067" lon="0.76699">
        <ele>1531</ele>
        <time>2016-08-28T08:15:26Z</time>
      </trkpt>
      <trkpt lat="42.91065" lon="0.76709">
        <ele>1529</ele>
        <time>2016-08-28T08:15:39Z</time>
      </trkpt>
      <trkpt lat="42.91061" lon="0.76718">
        <ele>1531</ele>
        <time>2016-08-28T08:15:51Z</time>
      </trkpt>
      <trkpt lat="42.91058" lon="0.76728">
        <ele>1530</ele>
        <time>2016-08-28T08:16:02Z</time>
      </trkpt>
      <trkpt lat="42.91055" lon="0.76736">
        <ele>1530</ele>
        <time>2016-08-28T08:16:14Z</time>
      </trkpt>
      <trkpt lat="42.91051" lon="0.76746">
        <ele>1532</ele>
        <time>2016-08-28T08:16:25Z</time>
      </trkpt>
      <trkpt lat="42.91048" lon="0.76755">
        <ele>1533</ele>
        <time>2016-08-28T08:16:35Z</time>
      </trkpt>
      <trkpt lat="42.91044" lon="0.76764">
        <ele>1538</ele>
        <time>2016-08-28T08:16:49Z</time>
      </trkpt>
      <trkpt lat="42.91042" lon="0.76774">
        <ele>1539</ele>
        <time>2016-08-28T08:16:58Z</time>
      </trkpt>
      <trkpt lat="42.91039" lon="0.76783">
        <ele>1539</ele>
        <time>2016-08-28T08:17:06Z</time>
      </trkpt>
      <trkpt lat="42.91036" lon="0.76792">
        <ele>1541</ele>
        <time>2016-08-28T08:17:17Z</time>
      </trkpt>
      <trkpt lat="42.91033" lon="0.76801">
        <ele>1542</ele>
        <time>2016-08-28T08:17:28Z</time>
      </trkpt>
      <trkpt lat="42.91029" lon="0.76809">
        <ele>1546</ele>
        <time>2016-08-28T08:17:38Z</time>
      </trkpt>
      <trkpt lat="42.91026" lon="0.76819">
        <ele>1546</ele>
        <time>2016-08-28T08:17:46Z</time>
      </trkpt>
      <trkpt lat="42.91024" lon="0.7683">
        <ele>1549</ele>
        <time>2016-08-28T08:17:56Z</time>
      </trkpt>
      <trkpt lat="42.91021" lon="0.76839">
        <ele>1552</ele>
        <time>2016-08-28T08:18:07Z</time>
      </trkpt>
      <trkpt lat="42.91015" lon="0.76846">
        <ele>1553</ele>
        <time>2016-08-28T08:18:18Z</time>
      </trkpt>
      <trkpt lat="42.9101" lon="0.76853">
        <ele>1552</ele>
        <time>2016-08-28T08:18:30Z</time>
      </trkpt>
      <trkpt lat="42.91006" lon="0.76861">
        <ele>1553</ele>
        <time>2016-08-28T08:18:40Z</time>
      </trkpt>
      <trkpt lat="42.90999" lon="0.76865">
        <ele>1554</ele>
        <time>2016-08-28T08:18:53Z</time>
      </trkpt>
      <trkpt lat="42.90991" lon="0.76867">
        <ele>1554</ele>
        <time>2016-08-28T08:19:09Z</time>
      </trkpt>
      <trkpt lat="42.90985" lon="0.7687">
        <ele>1556</ele>
        <time>2016-08-28T08:19:26Z</time>
      </trkpt>
      <trkpt lat="42.90977" lon="0.76872">
        <ele>1558</ele>
        <time>2016-08-28T08:19:43Z</time>
      </trkpt>
      <trkpt lat="42.9097" lon="0.76874">
        <ele>1561</ele>
        <time>2016-08-28T08:20:02Z</time>
      </trkpt>
      <trkpt lat="42.90963" lon="0.76877">
        <ele>1562</ele>
        <time>2016-08-28T08:20:23Z</time>
      </trkpt>
      <trkpt lat="42.90956" lon="0.76879">
        <ele>1566</ele>
        <time>2016-08-28T08:20:58Z</time>
      </trkpt>
      <trkpt lat="42.90948" lon="0.7688">
        <ele>1571</ele>
        <time>2016-08-28T08:21:19Z</time>
      </trkpt>
      <trkpt lat="42.9094" lon="0.76881">
        <ele>1575</ele>
        <time>2016-08-28T08:21:42Z</time>
      </trkpt>
      <trkpt lat="42.90936" lon="0.7689">
        <ele>1581</ele>
        <time>2016-08-28T08:21:53Z</time>
      </trkpt>
      <trkpt lat="42.90929" lon="0.76892">
        <ele>1584</ele>
        <time>2016-08-28T08:22:13Z</time>
      </trkpt>
      <trkpt lat="42.90922" lon="0.76896">
        <ele>1583</ele>
        <time>2016-08-28T08:23:05Z</time>
      </trkpt>
      <trkpt lat="42.90916" lon="0.76903">
        <ele>1584</ele>
        <time>2016-08-28T08:23:19Z</time>
      </trkpt>
      <trkpt lat="42.90911" lon="0.76911">
        <ele>1587</ele>
        <time>2016-08-28T08:23:29Z</time>
      </trkpt>
      <trkpt lat="42.90909" lon="0.76921">
        <ele>1589</ele>
        <time>2016-08-28T08:23:39Z</time>
      </trkpt>
      <trkpt lat="42.90904" lon="0.76928">
        <ele>1591</ele>
        <time>2016-08-28T08:23:50Z</time>
      </trkpt>
      <trkpt lat="42.90897" lon="0.76925">
        <ele>1594</ele>
        <time>2016-08-28T08:24:08Z</time>
      </trkpt>
      <trkpt lat="42.9089" lon="0.76931">
        <ele>1591</ele>
        <time>2016-08-28T08:24:20Z</time>
      </trkpt>
      <trkpt lat="42.90888" lon="0.76941">
        <ele>1592</ele>
        <time>2016-08-28T08:24:31Z</time>
      </trkpt>
      <trkpt lat="42.90889" lon="0.76952">
        <ele>1595</ele>
        <time>2016-08-28T08:24:42Z</time>
      </trkpt>
      <trkpt lat="42.90884" lon="0.76959">
        <ele>1593</ele>
        <time>2016-08-28T08:24:52Z</time>
      </trkpt>
      <trkpt lat="42.90876" lon="0.76963">
        <ele>1594</ele>
        <time>2016-08-28T08:25:03Z</time>
      </trkpt>
      <trkpt lat="42.90872" lon="0.76972">
        <ele>1593</ele>
        <time>2016-08-28T08:25:14Z</time>
      </trkpt>
      <trkpt lat="42.90865" lon="0.76975">
        <ele>1596</ele>
        <time>2016-08-28T08:25:26Z</time>
      </trkpt>
      <trkpt lat="42.90862" lon="0.76984">
        <ele>1596</ele>
        <time>2016-08-28T08:25:36Z</time>
      </trkpt>
      <trkpt lat="42.90858" lon="0.76993">
        <ele>1594</ele>
        <time>2016-08-28T08:25:44Z</time>
      </trkpt>
      <trkpt lat="42.90852" lon="0.77001">
        <ele>1594</ele>
        <time>2016-08-28T08:25:56Z</time>
      </trkpt>
      <trkpt lat="42.90844" lon="0.77004">
        <ele>1598</ele>
        <time>2016-08-28T08:26:18Z</time>
      </trkpt>
      <trkpt lat="42.90836" lon="0.77006">
        <ele>1598</ele>
        <time>2016-08-28T08:26:28Z</time>
      </trkpt>
      <trkpt lat="42.9083" lon="0.77011">
        <ele>1598</ele>
        <time>2016-08-28T08:26:40Z</time>
      </trkpt>
      <trkpt lat="42.90822" lon="0.77011">
        <ele>1602</ele>
        <time>2016-08-28T08:26:53Z</time>
      </trkpt>
      <trkpt lat="42.90815" lon="0.77013">
        <ele>1607</ele>
        <time>2016-08-28T08:27:02Z</time>
      </trkpt>
      <trkpt lat="42.9081" lon="0.77023">
        <ele>1605</ele>
        <time>2016-08-28T08:27:15Z</time>
      </trkpt>
      <trkpt lat="42.90803" lon="0.7702">
        <ele>1603</ele>
        <time>2016-08-28T08:27:23Z</time>
      </trkpt>
      <trkpt lat="42.90795" lon="0.77017">
        <ele>1603</ele>
        <time>2016-08-28T08:27:43Z</time>
      </trkpt>
      <trkpt lat="42.9079" lon="0.77025">
        <ele>1605</ele>
        <time>2016-08-28T08:27:56Z</time>
      </trkpt>
      <trkpt lat="42.90783" lon="0.77028">
        <ele>1610</ele>
        <time>2016-08-28T08:28:15Z</time>
      </trkpt>
      <trkpt lat="42.90776" lon="0.77032">
        <ele>1616</ele>
        <time>2016-08-28T08:28:52Z</time>
      </trkpt>
      <trkpt lat="42.90768" lon="0.77032">
        <ele>1622</ele>
        <time>2016-08-28T08:29:22Z</time>
      </trkpt>
      <trkpt lat="42.90761" lon="0.77032">
        <ele>1619</ele>
        <time>2016-08-28T08:29:47Z</time>
      </trkpt>
      <trkpt lat="42.90754" lon="0.77034">
        <ele>1619</ele>
        <time>2016-08-28T08:30:17Z</time>
      </trkpt>
      <trkpt lat="42.90747" lon="0.77037">
        <ele>1624</ele>
        <time>2016-08-28T08:31:07Z</time>
      </trkpt>
      <trkpt lat="42.90741" lon="0.77031">
        <ele>1625</ele>
        <time>2016-08-28T08:31:19Z</time>
      </trkpt>
      <trkpt lat="42.90739" lon="0.77042">
        <ele>1639</ele>
        <time>2016-08-28T08:31:57Z</time>
      </trkpt>
      <trkpt lat="42.90739" lon="0.77052">
        <ele>1656</ele>
        <time>2016-08-28T08:33:22Z</time>
      </trkpt>
      <trkpt lat="42.90732" lon="0.77049">
        <ele>1668</ele>
        <time>2016-08-28T08:33:46Z</time>
      </trkpt>
      <trkpt lat="42.90726" lon="0.77056">
        <ele>1684</ele>
        <time>2016-08-28T08:34:16Z</time>
      </trkpt>
      <trkpt lat="42.90722" lon="0.77047">
        <ele>1680</ele>
        <time>2016-08-28T08:34:27Z</time>
      </trkpt>
      <trkpt lat="42.90723" lon="0.77057">
        <ele>1710</ele>
        <time>2016-08-28T08:35:21Z</time>
      </trkpt>
      <trkpt lat="42.90716" lon="0.77055">
        <ele>1722</ele>
        <time>2016-08-28T08:35:47Z</time>
      </trkpt>
      <trkpt lat="42.90715" lon="0.77065">
        <ele>1726</ele>
        <time>2016-08-28T08:36:02Z</time>
      </trkpt>
      <trkpt lat="42.9071" lon="0.77059">
        <ele>1735</ele>
        <time>2016-08-28T08:36:24Z</time>
      </trkpt>
      <trkpt lat="42.90706" lon="0.77068">
        <ele>1740</ele>
        <time>2016-08-28T08:36:42Z</time>
      </trkpt>
      <trkpt lat="42.90699" lon="0.77063">
        <ele>1748</ele>
        <time>2016-08-28T08:37:18Z</time>
      </trkpt>
      <trkpt lat="42.90692" lon="0.77069">
        <ele>1748</ele>
        <time>2016-08-28T08:37:48Z</time>
      </trkpt>
      <trkpt lat="42.90691" lon="0.77079">
        <ele>1748</ele>
        <time>2016-08-28T08:38:00Z</time>
      </trkpt>
      <trkpt lat="42.90686" lon="0.77086">
        <ele>1747</ele>
        <time>2016-08-28T08:38:14Z</time>
      </trkpt>
      <trkpt lat="42.9068" lon="0.77093">
        <ele>1753</ele>
        <time>2016-08-28T08:38:36Z</time>
      </trkpt>
      <trkpt lat="42.90679" lon="0.77103">
        <ele>1756</ele>
        <time>2016-08-28T08:39:32Z</time>
      </trkpt>
      <trkpt lat="42.90676" lon="0.77113">
        <ele>1759</ele>
        <time>2016-08-28T08:39:45Z</time>
      </trkpt>
      <trkpt lat="42.90671" lon="0.77121">
        <ele>1760</ele>
        <time>2016-08-28T08:40:00Z</time>
      </trkpt>
      <trkpt lat="42.90666" lon="0.77129">
        <ele>1760</ele>
        <time>2016-08-28T08:40:11Z</time>
      </trkpt>
      <trkpt lat="42.90666" lon="0.77139">
        <ele>1764</ele>
        <time>2016-08-28T08:40:20Z</time>
      </trkpt>
      <trkpt lat="42.90661" lon="0.77146">
        <ele>1764</ele>
        <time>2016-08-28T08:40:28Z</time>
      </trkpt>
      <trkpt lat="42.90652" lon="0.77145">
        <ele>1758</ele>
        <time>2016-08-28T08:40:38Z</time>
      </trkpt>
      <trkpt lat="42.90649" lon="0.77155">
        <ele>1757</ele>
        <time>2016-08-28T08:40:56Z</time>
      </trkpt>
      <trkpt lat="42.90642" lon="0.77158">
        <ele>1753</ele>
        <time>2016-08-28T08:41:03Z</time>
      </trkpt>
      <trkpt lat="42.90632" lon="0.77157">
        <ele>1744</ele>
        <time>2016-08-28T08:41:10Z</time>
      </trkpt>
      <trkpt lat="42.90615" lon="0.77156">
        <ele>1733</ele>
        <time>2016-08-28T08:41:18Z</time>
      </trkpt>
      <trkpt lat="42.90607" lon="0.77159">
        <ele>1734</ele>
        <time>2016-08-28T08:41:27Z</time>
      </trkpt>
      <trkpt lat="42.906" lon="0.77159">
        <ele>1726</ele>
        <time>2016-08-28T08:41:33Z</time>
      </trkpt>
      <trkpt lat="42.90593" lon="0.77165">
        <ele>1731</ele>
        <time>2016-08-28T08:41:40Z</time>
      </trkpt>
      <trkpt lat="42.90585" lon="0.77169">
        <ele>1732</ele>
        <time>2016-08-28T08:41:49Z</time>
      </trkpt>
      <trkpt lat="42.90581" lon="0.77177">
        <ele>1738</ele>
        <time>2016-08-28T08:41:57Z</time>
      </trkpt>
      <trkpt lat="42.90575" lon="0.77185">
        <ele>1741</ele>
        <time>2016-08-28T08:42:06Z</time>
      </trkpt>
      <trkpt lat="42.90568" lon="0.77188">
        <ele>1741</ele>
        <time>2016-08-28T08:42:13Z</time>
      </trkpt>
      <trkpt lat="42.9056" lon="0.77193">
        <ele>1739</ele>
        <time>2016-08-28T08:42:22Z</time>
      </trkpt>
      <trkpt lat="42.90552" lon="0.77192">
        <ele>1733</ele>
        <time>2016-08-28T08:42:32Z</time>
      </trkpt>
      <trkpt lat="42.90546" lon="0.77187">
        <ele>1732</ele>
        <time>2016-08-28T08:42:41Z</time>
      </trkpt>
      <trkpt lat="42.90542" lon="0.77178">
        <ele>1714</ele>
        <time>2016-08-28T08:42:59Z</time>
      </trkpt>
      <trkpt lat="42.90535" lon="0.77176">
        <ele>1696</ele>
        <time>2016-08-28T08:43:24Z</time>
      </trkpt>
      <trkpt lat="42.9053" lon="0.77184">
        <ele>1693</ele>
        <time>2016-08-28T08:43:38Z</time>
      </trkpt>
      <trkpt lat="42.90524" lon="0.77189">
        <ele>1694</ele>
        <time>2016-08-28T08:43:58Z</time>
      </trkpt>
      <trkpt lat="42.90517" lon="0.77184">
        <ele>1693</ele>
        <time>2016-08-28T08:44:16Z</time>
      </trkpt>
      <trkpt lat="42.90514" lon="0.77192">
        <ele>1691</ele>
        <time>2016-08-28T08:44:30Z</time>
      </trkpt>
      <trkpt lat="42.90507" lon="0.77193">
        <ele>1692</ele>
        <time>2016-08-28T08:44:45Z</time>
      </trkpt>
      <trkpt lat="42.905" lon="0.77197">
        <ele>1693</ele>
        <time>2016-08-28T08:45:07Z</time>
      </trkpt>
      <trkpt lat="42.905" lon="0.77207">
        <ele>1691</ele>
        <time>2016-08-28T08:45:27Z</time>
      </trkpt>
      <trkpt lat="42.90493" lon="0.77201">
        <ele>1693</ele>
        <time>2016-08-28T08:45:39Z</time>
      </trkpt>
      <trkpt lat="42.90487" lon="0.77206">
        <ele>1696</ele>
        <time>2016-08-28T08:46:02Z</time>
      </trkpt>
      <trkpt lat="42.90487" lon="0.77216">
        <ele>1694</ele>
        <time>2016-08-28T08:46:11Z</time>
      </trkpt>
      <trkpt lat="42.9048" lon="0.77212">
        <ele>1697</ele>
        <time>2016-08-28T08:46:26Z</time>
      </trkpt>
      <trkpt lat="42.9048" lon="0.77223">
        <ele>1697</ele>
        <time>2016-08-28T08:46:37Z</time>
      </trkpt>
      <trkpt lat="42.90474" lon="0.77216">
        <ele>1700</ele>
        <time>2016-08-28T08:46:49Z</time>
      </trkpt>
      <trkpt lat="42.90473" lon="0.77226">
        <ele>1700</ele>
        <time>2016-08-28T08:47:07Z</time>
      </trkpt>
      <trkpt lat="42.90465" lon="0.77227">
        <ele>1708</ele>
        <time>2016-08-28T08:47:31Z</time>
      </trkpt>
      <trkpt lat="42.90459" lon="0.77233">
        <ele>1710</ele>
        <time>2016-08-28T08:48:01Z</time>
      </trkpt>
      <trkpt lat="42.90451" lon="0.77236">
        <ele>1709</ele>
        <time>2016-08-28T08:48:11Z</time>
      </trkpt>
      <trkpt lat="42.90444" lon="0.77237">
        <ele>1715</ele>
        <time>2016-08-28T08:48:21Z</time>
      </trkpt>
      <trkpt lat="42.9044" lon="0.77246">
        <ele>1716</ele>
        <time>2016-08-28T08:48:35Z</time>
      </trkpt>
      <trkpt lat="42.90432" lon="0.77244">
        <ele>1719</ele>
        <time>2016-08-28T08:48:54Z</time>
      </trkpt>
      <trkpt lat="42.90426" lon="0.77251">
        <ele>1717</ele>
        <time>2016-08-28T08:49:11Z</time>
      </trkpt>
      <trkpt lat="42.90419" lon="0.77254">
        <ele>1715</ele>
        <time>2016-08-28T08:49:35Z</time>
      </trkpt>
      <trkpt lat="42.90412" lon="0.77258">
        <ele>1717</ele>
        <time>2016-08-28T08:49:50Z</time>
      </trkpt>
      <trkpt lat="42.90405" lon="0.77262">
        <ele>1723</ele>
        <time>2016-08-28T08:50:10Z</time>
      </trkpt>
      <trkpt lat="42.904" lon="0.77269">
        <ele>1722</ele>
        <time>2016-08-28T08:50:22Z</time>
      </trkpt>
      <trkpt lat="42.90396" lon="0.77278">
        <ele>1724</ele>
        <time>2016-08-28T08:50:34Z</time>
      </trkpt>
      <trkpt lat="42.90388" lon="0.77277">
        <ele>1726</ele>
        <time>2016-08-28T08:51:04Z</time>
      </trkpt>
      <trkpt lat="42.90382" lon="0.77272">
        <ele>1727</ele>
        <time>2016-08-28T08:51:15Z</time>
      </trkpt>
      <trkpt lat="42.90376" lon="0.77279">
        <ele>1728</ele>
        <time>2016-08-28T08:51:25Z</time>
      </trkpt>
      <trkpt lat="42.90369" lon="0.77283">
        <ele>1729</ele>
        <time>2016-08-28T08:51:40Z</time>
      </trkpt>
      <trkpt lat="42.90362" lon="0.77282">
        <ele>1730</ele>
        <time>2016-08-28T08:51:50Z</time>
      </trkpt>
      <trkpt lat="42.90359" lon="0.77272">
        <ele>1731</ele>
        <time>2016-08-28T08:53:28Z</time>
      </trkpt>
      <trkpt lat="42.90352" lon="0.77267">
        <ele>1733</ele>
        <time>2016-08-28T08:53:41Z</time>
      </trkpt>
      <trkpt lat="42.90347" lon="0.77261">
        <ele>1735</ele>
        <time>2016-08-28T08:53:52Z</time>
      </trkpt>
      <trkpt lat="42.90341" lon="0.77253">
        <ele>1739</ele>
        <time>2016-08-28T08:54:03Z</time>
      </trkpt>
      <trkpt lat="42.90338" lon="0.77244">
        <ele>1742</ele>
        <time>2016-08-28T08:54:21Z</time>
      </trkpt>
      <trkpt lat="42.90334" lon="0.77234">
        <ele>1743</ele>
        <time>2016-08-28T08:54:38Z</time>
      </trkpt>
      <trkpt lat="42.90337" lon="0.77223">
        <ele>1744</ele>
        <time>2016-08-28T08:54:49Z</time>
      </trkpt>
      <trkpt lat="42.90329" lon="0.77221">
        <ele>1740</ele>
        <time>2016-08-28T08:55:02Z</time>
      </trkpt>
      <trkpt lat="42.90323" lon="0.77214">
        <ele>1743</ele>
        <time>2016-08-28T08:55:16Z</time>
      </trkpt>
      <trkpt lat="42.9032" lon="0.77205">
        <ele>1742</ele>
        <time>2016-08-28T08:55:45Z</time>
      </trkpt>
      <trkpt lat="42.90312" lon="0.77207">
        <ele>1745</ele>
        <time>2016-08-28T08:56:02Z</time>
      </trkpt>
      <trkpt lat="42.90315" lon="0.77198">
        <ele>1742</ele>
        <time>2016-08-28T08:56:24Z</time>
      </trkpt>
      <trkpt lat="42.90315" lon="0.77186">
        <ele>1742</ele>
        <time>2016-08-28T08:56:41Z</time>
      </trkpt>
      <trkpt lat="42.90308" lon="0.77182">
        <ele>1755</ele>
        <time>2016-08-28T08:57:29Z</time>
      </trkpt>
      <trkpt lat="42.90303" lon="0.77175">
        <ele>1753</ele>
        <time>2016-08-28T08:57:48Z</time>
      </trkpt>
      <trkpt lat="42.90299" lon="0.77167">
        <ele>1754</ele>
        <time>2016-08-28T08:58:21Z</time>
      </trkpt>
      <trkpt lat="42.90295" lon="0.77158">
        <ele>1761</ele>
        <time>2016-08-28T08:59:02Z</time>
      </trkpt>
      <trkpt lat="42.90291" lon="0.77149">
        <ele>1762</ele>
        <time>2016-08-28T08:59:40Z</time>
      </trkpt>
      <trkpt lat="42.90288" lon="0.7714">
        <ele>1760</ele>
        <time>2016-08-28T08:59:50Z</time>
      </trkpt>
      <trkpt lat="42.90282" lon="0.77133">
        <ele>1759</ele>
        <time>2016-08-28T08:59:58Z</time>
      </trkpt>
      <trkpt lat="42.90281" lon="0.77123">
        <ele>1763</ele>
        <time>2016-08-28T09:00:11Z</time>
      </trkpt>
      <trkpt lat="42.90278" lon="0.77113">
        <ele>1763</ele>
        <time>2016-08-28T09:00:21Z</time>
      </trkpt>
      <trkpt lat="42.90277" lon="0.77103">
        <ele>1768</ele>
        <time>2016-08-28T09:00:35Z</time>
      </trkpt>
      <trkpt lat="42.90276" lon="0.77092">
        <ele>1764</ele>
        <time>2016-08-28T09:00:55Z</time>
      </trkpt>
      <trkpt lat="42.90281" lon="0.77084">
        <ele>1763</ele>
        <time>2016-08-28T09:01:06Z</time>
      </trkpt>
      <trkpt lat="42.90284" lon="0.77075">
        <ele>1764</ele>
        <time>2016-08-28T09:01:39Z</time>
      </trkpt>
      <trkpt lat="42.90287" lon="0.77066">
        <ele>1768</ele>
        <time>2016-08-28T09:02:13Z</time>
      </trkpt>
      <trkpt lat="42.90284" lon="0.77057">
        <ele>1770</ele>
        <time>2016-08-28T09:02:34Z</time>
      </trkpt>
      <trkpt lat="42.90284" lon="0.77047">
        <ele>1775</ele>
        <time>2016-08-28T09:03:03Z</time>
      </trkpt>
      <trkpt lat="42.90285" lon="0.77037">
        <ele>1775</ele>
        <time>2016-08-28T09:03:18Z</time>
      </trkpt>
      <trkpt lat="42.90291" lon="0.77029">
        <ele>1777</ele>
        <time>2016-08-28T09:03:32Z</time>
      </trkpt>
      <trkpt lat="42.90289" lon="0.7702">
        <ele>1781</ele>
        <time>2016-08-28T09:04:05Z</time>
      </trkpt>
      <trkpt lat="42.90284" lon="0.77011">
        <ele>1783</ele>
        <time>2016-08-28T09:04:25Z</time>
      </trkpt>
      <trkpt lat="42.90277" lon="0.77008">
        <ele>1788</ele>
        <time>2016-08-28T09:05:09Z</time>
      </trkpt>
      <trkpt lat="42.9027" lon="0.7701">
        <ele>1794</ele>
        <time>2016-08-28T09:05:30Z</time>
      </trkpt>
      <trkpt lat="42.90263" lon="0.77009">
        <ele>1793</ele>
        <time>2016-08-28T09:05:42Z</time>
      </trkpt>
      <trkpt lat="42.90256" lon="0.77006">
        <ele>1795</ele>
        <time>2016-08-28T09:06:06Z</time>
      </trkpt>
      <trkpt lat="42.90248" lon="0.77006">
        <ele>1797</ele>
        <time>2016-08-28T09:06:40Z</time>
      </trkpt>
      <trkpt lat="42.90241" lon="0.77004">
        <ele>1798</ele>
        <time>2016-08-28T09:06:55Z</time>
      </trkpt>
      <trkpt lat="42.90234" lon="0.77004">
        <ele>1802</ele>
        <time>2016-08-28T09:07:14Z</time>
      </trkpt>
      <trkpt lat="42.90226" lon="0.77004">
        <ele>1801</ele>
        <time>2016-08-28T09:07:44Z</time>
      </trkpt>
      <trkpt lat="42.90218" lon="0.77004">
        <ele>1803</ele>
        <time>2016-08-28T09:08:02Z</time>
      </trkpt>
      <trkpt lat="42.90211" lon="0.77002">
        <ele>1804</ele>
        <time>2016-08-28T09:08:14Z</time>
      </trkpt>
      <trkpt lat="42.90204" lon="0.77003">
        <ele>1808</ele>
        <time>2016-08-28T09:08:54Z</time>
      </trkpt>
      <trkpt lat="42.90196" lon="0.77006">
        <ele>1809</ele>
        <time>2016-08-28T09:09:05Z</time>
      </trkpt>
      <trkpt lat="42.90189" lon="0.77006">
        <ele>1811</ele>
        <time>2016-08-28T09:09:46Z</time>
      </trkpt>
      <trkpt lat="42.90181" lon="0.77006">
        <ele>1815</ele>
        <time>2016-08-28T09:10:01Z</time>
      </trkpt>
      <trkpt lat="42.90175" lon="0.77013">
        <ele>1820</ele>
        <time>2016-08-28T09:10:35Z</time>
      </trkpt>
      <trkpt lat="42.90167" lon="0.77013">
        <ele>1819</ele>
        <time>2016-08-28T09:10:48Z</time>
      </trkpt>
      <trkpt lat="42.9016" lon="0.77017">
        <ele>1820</ele>
        <time>2016-08-28T09:11:16Z</time>
      </trkpt>
      <trkpt lat="42.90153" lon="0.77022">
        <ele>1823</ele>
        <time>2016-08-28T09:11:29Z</time>
      </trkpt>
      <trkpt lat="42.90147" lon="0.77026">
        <ele>1823</ele>
        <time>2016-08-28T09:11:44Z</time>
      </trkpt>
      <trkpt lat="42.90139" lon="0.77029">
        <ele>1823</ele>
        <time>2016-08-28T09:11:54Z</time>
      </trkpt>
      <trkpt lat="42.90132" lon="0.77032">
        <ele>1826</ele>
        <time>2016-08-28T09:12:09Z</time>
      </trkpt>
      <trkpt lat="42.90126" lon="0.77039">
        <ele>1827</ele>
        <time>2016-08-28T09:12:24Z</time>
      </trkpt>
      <trkpt lat="42.90125" lon="0.77048">
        <ele>1827</ele>
        <time>2016-08-28T09:12:35Z</time>
      </trkpt>
      <trkpt lat="42.90122" lon="0.77058">
        <ele>1828</ele>
        <time>2016-08-28T09:12:47Z</time>
      </trkpt>
      <trkpt lat="42.9012" lon="0.77068">
        <ele>1829</ele>
        <time>2016-08-28T09:12:56Z</time>
      </trkpt>
      <trkpt lat="42.90116" lon="0.77076">
        <ele>1828</ele>
        <time>2016-08-28T09:13:05Z</time>
      </trkpt>
      <trkpt lat="42.90114" lon="0.77087">
        <ele>1830</ele>
        <time>2016-08-28T09:13:13Z</time>
      </trkpt>
      <trkpt lat="42.9011" lon="0.77096">
        <ele>1831</ele>
        <time>2016-08-28T09:13:21Z</time>
      </trkpt>
      <trkpt lat="42.90103" lon="0.77101">
        <ele>1828</ele>
        <time>2016-08-28T09:15:40Z</time>
      </trkpt>
      <trkpt lat="42.90109" lon="0.77097">
        <ele>1829</ele>
        <time>2016-08-28T09:16:32Z</time>
      </trkpt>
      <trkpt lat="42.90104" lon="0.77103">
        <ele>1832</ele>
        <time>2016-08-28T09:18:37Z</time>
      </trkpt>
      <trkpt lat="42.90098" lon="0.7711">
        <ele>1832</ele>
        <time>2016-08-28T09:18:47Z</time>
      </trkpt>
      <trkpt lat="42.90093" lon="0.77118">
        <ele>1833</ele>
        <time>2016-08-28T09:18:54Z</time>
      </trkpt>
      <trkpt lat="42.90088" lon="0.77127">
        <ele>1828</ele>
        <time>2016-08-28T09:19:01Z</time>
      </trkpt>
      <trkpt lat="42.90085" lon="0.77137">
        <ele>1830</ele>
        <time>2016-08-28T09:19:09Z</time>
      </trkpt>
      <trkpt lat="42.90082" lon="0.77146">
        <ele>1831</ele>
        <time>2016-08-28T09:19:16Z</time>
      </trkpt>
      <trkpt lat="42.90076" lon="0.77154">
        <ele>1833</ele>
        <time>2016-08-28T09:19:24Z</time>
      </trkpt>
      <trkpt lat="42.90074" lon="0.77165">
        <ele>1835</ele>
        <time>2016-08-28T09:19:32Z</time>
      </trkpt>
      <trkpt lat="42.9007" lon="0.77173">
        <ele>1836</ele>
        <time>2016-08-28T09:19:40Z</time>
      </trkpt>
      <trkpt lat="42.90067" lon="0.77183">
        <ele>1838</ele>
        <time>2016-08-28T09:19:49Z</time>
      </trkpt>
      <trkpt lat="42.90062" lon="0.77191">
        <ele>1838</ele>
        <time>2016-08-28T09:19:58Z</time>
      </trkpt>
      <trkpt lat="42.90056" lon="0.77199">
        <ele>1836</ele>
        <time>2016-08-28T09:20:06Z</time>
      </trkpt>
      <trkpt lat="42.90051" lon="0.77207">
        <ele>1835</ele>
        <time>2016-08-28T09:20:12Z</time>
      </trkpt>
      <trkpt lat="42.90046" lon="0.77214">
        <ele>1836</ele>
        <time>2016-08-28T09:20:21Z</time>
      </trkpt>
      <trkpt lat="42.90043" lon="0.77224">
        <ele>1839</ele>
        <time>2016-08-28T09:20:28Z</time>
      </trkpt>
      <trkpt lat="42.9004" lon="0.77233">
        <ele>1839</ele>
        <time>2016-08-28T09:20:35Z</time>
      </trkpt>
      <trkpt lat="42.9004" lon="0.77243">
        <ele>1838</ele>
        <time>2016-08-28T09:20:40Z</time>
      </trkpt>
      <trkpt lat="42.9004" lon="0.77254">
        <ele>1839</ele>
        <time>2016-08-28T09:20:47Z</time>
      </trkpt>
      <trkpt lat="42.90037" lon="0.77263">
        <ele>1840</ele>
        <time>2016-08-28T09:20:56Z</time>
      </trkpt>
      <trkpt lat="42.90035" lon="0.77273">
        <ele>1842</ele>
        <time>2016-08-28T09:21:03Z</time>
      </trkpt>
      <trkpt lat="42.90035" lon="0.77285">
        <ele>1842</ele>
        <time>2016-08-28T09:21:12Z</time>
      </trkpt>
      <trkpt lat="42.90033" lon="0.77295">
        <ele>1841</ele>
        <time>2016-08-28T09:21:19Z</time>
      </trkpt>
      <trkpt lat="42.90032" lon="0.77306">
        <ele>1842</ele>
        <time>2016-08-28T09:21:28Z</time>
      </trkpt>
      <trkpt lat="42.90033" lon="0.77317">
        <ele>1844</ele>
        <time>2016-08-28T09:21:35Z</time>
      </trkpt>
      <trkpt lat="42.9003" lon="0.77326">
        <ele>1843</ele>
        <time>2016-08-28T09:21:44Z</time>
      </trkpt>
      <trkpt lat="42.90026" lon="0.77334">
        <ele>1843</ele>
        <time>2016-08-28T09:21:54Z</time>
      </trkpt>
      <trkpt lat="42.90024" lon="0.77343">
        <ele>1843</ele>
        <time>2016-08-28T09:22:05Z</time>
      </trkpt>
      <trkpt lat="42.90021" lon="0.77352">
        <ele>1846</ele>
        <time>2016-08-28T09:22:17Z</time>
      </trkpt>
      <trkpt lat="42.90016" lon="0.77361">
        <ele>1847</ele>
        <time>2016-08-28T09:22:30Z</time>
      </trkpt>
      <trkpt lat="42.90011" lon="0.77368">
        <ele>1846</ele>
        <time>2016-08-28T09:22:42Z</time>
      </trkpt>
      <trkpt lat="42.90005" lon="0.77376">
        <ele>1845</ele>
        <time>2016-08-28T09:22:51Z</time>
      </trkpt>
      <trkpt lat="42.89999" lon="0.77382">
        <ele>1841</ele>
        <time>2016-08-28T09:22:59Z</time>
      </trkpt>
      <trkpt lat="42.89995" lon="0.77391">
        <ele>1846</ele>
        <time>2016-08-28T09:23:11Z</time>
      </trkpt>
      <trkpt lat="42.89989" lon="0.77397">
        <ele>1845</ele>
        <time>2016-08-28T09:23:20Z</time>
      </trkpt>
      <trkpt lat="42.89984" lon="0.77405">
        <ele>1843</ele>
        <time>2016-08-28T09:23:30Z</time>
      </trkpt>
      <trkpt lat="42.89979" lon="0.77413">
        <ele>1844</ele>
        <time>2016-08-28T09:23:41Z</time>
      </trkpt>
      <trkpt lat="42.89973" lon="0.77419">
        <ele>1844</ele>
        <time>2016-08-28T09:23:51Z</time>
      </trkpt>
      <trkpt lat="42.89967" lon="0.77426">
        <ele>1844</ele>
        <time>2016-08-28T09:24:03Z</time>
      </trkpt>
      <trkpt lat="42.8996" lon="0.7743">
        <ele>1845</ele>
        <time>2016-08-28T09:24:14Z</time>
      </trkpt>
      <trkpt lat="42.89956" lon="0.77439">
        <ele>1848</ele>
        <time>2016-08-28T09:24:24Z</time>
      </trkpt>
      <trkpt lat="42.8995" lon="0.77445">
        <ele>1848</ele>
        <time>2016-08-28T09:24:38Z</time>
      </trkpt>
      <trkpt lat="42.89944" lon="0.7745">
        <ele>1847</ele>
        <time>2016-08-28T09:25:01Z</time>
      </trkpt>
      <trkpt lat="42.89938" lon="0.77457">
        <ele>1849</ele>
        <time>2016-08-28T09:25:09Z</time>
      </trkpt>
      <trkpt lat="42.89934" lon="0.77466">
        <ele>1852</ele>
        <time>2016-08-28T09:25:19Z</time>
      </trkpt>
      <trkpt lat="42.89932" lon="0.77475">
        <ele>1856</ele>
        <time>2016-08-28T09:25:50Z</time>
      </trkpt>
      <trkpt lat="42.89929" lon="0.77485">
        <ele>1859</ele>
        <time>2016-08-28T09:26:23Z</time>
      </trkpt>
      <trkpt lat="42.89925" lon="0.77493">
        <ele>1860</ele>
        <time>2016-08-28T09:26:36Z</time>
      </trkpt>
      <trkpt lat="42.8992" lon="0.77501">
        <ele>1861</ele>
        <time>2016-08-28T09:26:56Z</time>
      </trkpt>
      <trkpt lat="42.89918" lon="0.77511">
        <ele>1863</ele>
        <time>2016-08-28T09:27:21Z</time>
      </trkpt>
      <trkpt lat="42.89914" lon="0.7752">
        <ele>1861</ele>
        <time>2016-08-28T09:27:31Z</time>
      </trkpt>
      <trkpt lat="42.89906" lon="0.77524">
        <ele>1862</ele>
        <time>2016-08-28T09:27:46Z</time>
      </trkpt>
      <trkpt lat="42.89899" lon="0.77524">
        <ele>1862</ele>
        <time>2016-08-28T09:27:55Z</time>
      </trkpt>
      <trkpt lat="42.89893" lon="0.77529">
        <ele>1860</ele>
        <time>2016-08-28T09:28:06Z</time>
      </trkpt>
      <trkpt lat="42.89887" lon="0.77536">
        <ele>1863</ele>
        <time>2016-08-28T09:28:16Z</time>
      </trkpt>
      <trkpt lat="42.8988" lon="0.7754">
        <ele>1864</ele>
        <time>2016-08-28T09:28:28Z</time>
      </trkpt>
      <trkpt lat="42.89873" lon="0.77546">
        <ele>1865</ele>
        <time>2016-08-28T09:28:53Z</time>
      </trkpt>
      <trkpt lat="42.89868" lon="0.77553">
        <ele>1870</ele>
        <time>2016-08-28T09:29:33Z</time>
      </trkpt>
      <trkpt lat="42.8987" lon="0.77542">
        <ele>1871</ele>
        <time>2016-08-28T11:59:56Z</time>
      </trkpt>
      <trkpt lat="42.89877" lon="0.77542">
        <ele>1867</ele>
        <time>2016-08-28T12:00:20Z</time>
      </trkpt>
      <trkpt lat="42.89884" lon="0.77537">
        <ele>1865</ele>
        <time>2016-08-28T12:00:36Z</time>
      </trkpt>
      <trkpt lat="42.89891" lon="0.77534">
        <ele>1869</ele>
        <time>2016-08-28T12:00:50Z</time>
      </trkpt>
      <trkpt lat="42.89898" lon="0.7753">
        <ele>1866</ele>
        <time>2016-08-28T12:01:00Z</time>
      </trkpt>
      <trkpt lat="42.89903" lon="0.77522">
        <ele>1863</ele>
        <time>2016-08-28T12:01:09Z</time>
      </trkpt>
      <trkpt lat="42.89909" lon="0.77515">
        <ele>1861</ele>
        <time>2016-08-28T12:01:18Z</time>
      </trkpt>
      <trkpt lat="42.89916" lon="0.77511">
        <ele>1857</ele>
        <time>2016-08-28T12:01:28Z</time>
      </trkpt>
      <trkpt lat="42.89923" lon="0.77506">
        <ele>1857</ele>
        <time>2016-08-28T12:01:43Z</time>
      </trkpt>
      <trkpt lat="42.8993" lon="0.77501">
        <ele>1858</ele>
        <time>2016-08-28T12:01:58Z</time>
      </trkpt>
      <trkpt lat="42.89937" lon="0.77497">
        <ele>1856</ele>
        <time>2016-08-28T12:02:12Z</time>
      </trkpt>
      <trkpt lat="42.89944" lon="0.77494">
        <ele>1854</ele>
        <time>2016-08-28T12:02:27Z</time>
      </trkpt>
      <trkpt lat="42.8995" lon="0.77488">
        <ele>1854</ele>
        <time>2016-08-28T12:02:39Z</time>
      </trkpt>
      <trkpt lat="42.89955" lon="0.77481">
        <ele>1853</ele>
        <time>2016-08-28T12:02:52Z</time>
      </trkpt>
      <trkpt lat="42.89962" lon="0.77479">
        <ele>1851</ele>
        <time>2016-08-28T12:03:06Z</time>
      </trkpt>
      <trkpt lat="42.89966" lon="0.7747">
        <ele>1850</ele>
        <time>2016-08-28T12:03:17Z</time>
      </trkpt>
      <trkpt lat="42.89971" lon="0.77462">
        <ele>1848</ele>
        <time>2016-08-28T12:03:24Z</time>
      </trkpt>
      <trkpt lat="42.89975" lon="0.77454">
        <ele>1848</ele>
        <time>2016-08-28T12:03:33Z</time>
      </trkpt>
      <trkpt lat="42.8998" lon="0.77447">
        <ele>1847</ele>
        <time>2016-08-28T12:03:41Z</time>
      </trkpt>
      <trkpt lat="42.89985" lon="0.77439">
        <ele>1847</ele>
        <time>2016-08-28T12:03:50Z</time>
      </trkpt>
      <trkpt lat="42.89991" lon="0.77432">
        <ele>1848</ele>
        <time>2016-08-28T12:04:01Z</time>
      </trkpt>
      <trkpt lat="42.89997" lon="0.77425">
        <ele>1847</ele>
        <time>2016-08-28T12:04:09Z</time>
      </trkpt>
      <trkpt lat="42.90004" lon="0.7742">
        <ele>1854</ele>
        <time>2016-08-28T12:04:21Z</time>
      </trkpt>
      <trkpt lat="42.90011" lon="0.77417">
        <ele>1859</ele>
        <time>2016-08-28T12:04:32Z</time>
      </trkpt>
      <trkpt lat="42.90017" lon="0.77408">
        <ele>1857</ele>
        <time>2016-08-28T12:04:40Z</time>
      </trkpt>
      <trkpt lat="42.90024" lon="0.77401">
        <ele>1858</ele>
        <time>2016-08-28T12:04:49Z</time>
      </trkpt>
      <trkpt lat="42.90028" lon="0.77391">
        <ele>1858</ele>
        <time>2016-08-28T12:04:58Z</time>
      </trkpt>
      <trkpt lat="42.90029" lon="0.77382">
        <ele>1861</ele>
        <time>2016-08-28T12:05:07Z</time>
      </trkpt>
      <trkpt lat="42.90031" lon="0.77371">
        <ele>1859</ele>
        <time>2016-08-28T12:05:15Z</time>
      </trkpt>
      <trkpt lat="42.90034" lon="0.77362">
        <ele>1854</ele>
        <time>2016-08-28T12:05:23Z</time>
      </trkpt>
      <trkpt lat="42.90034" lon="0.77351">
        <ele>1851</ele>
        <time>2016-08-28T12:05:31Z</time>
      </trkpt>
      <trkpt lat="42.90035" lon="0.7734">
        <ele>1852</ele>
        <time>2016-08-28T12:05:39Z</time>
      </trkpt>
      <trkpt lat="42.90035" lon="0.77327">
        <ele>1849</ele>
        <time>2016-08-28T12:05:48Z</time>
      </trkpt>
      <trkpt lat="42.90035" lon="0.77317">
        <ele>1846</ele>
        <time>2016-08-28T12:05:56Z</time>
      </trkpt>
      <trkpt lat="42.90036" lon="0.77306">
        <ele>1846</ele>
        <time>2016-08-28T12:06:04Z</time>
      </trkpt>
      <trkpt lat="42.90036" lon="0.77295">
        <ele>1846</ele>
        <time>2016-08-28T12:06:12Z</time>
      </trkpt>
      <trkpt lat="42.90035" lon="0.77283">
        <ele>1845</ele>
        <time>2016-08-28T12:06:22Z</time>
      </trkpt>
      <trkpt lat="42.90036" lon="0.77273">
        <ele>1843</ele>
        <time>2016-08-28T12:06:31Z</time>
      </trkpt>
      <trkpt lat="42.90036" lon="0.77263">
        <ele>1839</ele>
        <time>2016-08-28T12:06:38Z</time>
      </trkpt>
      <trkpt lat="42.90038" lon="0.77253">
        <ele>1840</ele>
        <time>2016-08-28T12:06:45Z</time>
      </trkpt>
      <trkpt lat="42.90041" lon="0.77241">
        <ele>1840</ele>
        <time>2016-08-28T12:06:54Z</time>
      </trkpt>
      <trkpt lat="42.90043" lon="0.77232">
        <ele>1840</ele>
        <time>2016-08-28T12:07:03Z</time>
      </trkpt>
      <trkpt lat="42.90046" lon="0.77221">
        <ele>1838</ele>
        <time>2016-08-28T12:07:09Z</time>
      </trkpt>
      <trkpt lat="42.90051" lon="0.77213">
        <ele>1840</ele>
        <time>2016-08-28T12:07:18Z</time>
      </trkpt>
      <trkpt lat="42.90055" lon="0.77203">
        <ele>1840</ele>
        <time>2016-08-28T12:07:28Z</time>
      </trkpt>
      <trkpt lat="42.90059" lon="0.77194">
        <ele>1840</ele>
        <time>2016-08-28T12:07:38Z</time>
      </trkpt>
      <trkpt lat="42.90063" lon="0.77186">
        <ele>1836</ele>
        <time>2016-08-28T12:07:53Z</time>
      </trkpt>
      <trkpt lat="42.90067" lon="0.77177">
        <ele>1834</ele>
        <time>2016-08-28T12:08:00Z</time>
      </trkpt>
      <trkpt lat="42.90072" lon="0.77169">
        <ele>1834</ele>
        <time>2016-08-28T12:08:09Z</time>
      </trkpt>
      <trkpt lat="42.90077" lon="0.77162">
        <ele>1837</ele>
        <time>2016-08-28T12:08:18Z</time>
      </trkpt>
      <trkpt lat="42.90082" lon="0.77153">
        <ele>1837</ele>
        <time>2016-08-28T12:08:25Z</time>
      </trkpt>
      <trkpt lat="42.90086" lon="0.77145">
        <ele>1840</ele>
        <time>2016-08-28T12:08:38Z</time>
      </trkpt>
      <trkpt lat="42.9009" lon="0.77135">
        <ele>1840</ele>
        <time>2016-08-28T12:08:48Z</time>
      </trkpt>
      <trkpt lat="42.90094" lon="0.77126">
        <ele>1837</ele>
        <time>2016-08-28T12:08:56Z</time>
      </trkpt>
      <trkpt lat="42.90098" lon="0.77117">
        <ele>1836</ele>
        <time>2016-08-28T12:09:03Z</time>
      </trkpt>
      <trkpt lat="42.90101" lon="0.77108">
        <ele>1835</ele>
        <time>2016-08-28T12:09:11Z</time>
      </trkpt>
      <trkpt lat="42.90105" lon="0.77098">
        <ele>1833</ele>
        <time>2016-08-28T12:09:19Z</time>
      </trkpt>
      <trkpt lat="42.90109" lon="0.7709">
        <ele>1832</ele>
        <time>2016-08-28T12:09:28Z</time>
      </trkpt>
      <trkpt lat="42.90112" lon="0.7708">
        <ele>1829</ele>
        <time>2016-08-28T12:09:44Z</time>
      </trkpt>
      <trkpt lat="42.90116" lon="0.77071">
        <ele>1827</ele>
        <time>2016-08-28T12:09:53Z</time>
      </trkpt>
      <trkpt lat="42.90119" lon="0.77061">
        <ele>1829</ele>
        <time>2016-08-28T12:10:02Z</time>
      </trkpt>
      <trkpt lat="42.90121" lon="0.77051">
        <ele>1830</ele>
        <time>2016-08-28T12:10:10Z</time>
      </trkpt>
      <trkpt lat="42.90126" lon="0.77043">
        <ele>1831</ele>
        <time>2016-08-28T12:10:24Z</time>
      </trkpt>
      <trkpt lat="42.90132" lon="0.77037">
        <ele>1828</ele>
        <time>2016-08-28T12:10:32Z</time>
      </trkpt>
      <trkpt lat="42.90139" lon="0.77034">
        <ele>1826</ele>
        <time>2016-08-28T12:10:44Z</time>
      </trkpt>
      <trkpt lat="42.90147" lon="0.77028">
        <ele>1821</ele>
        <time>2016-08-28T12:10:58Z</time>
      </trkpt>
      <trkpt lat="42.90154" lon="0.77029">
        <ele>1815</ele>
        <time>2016-08-28T12:12:22Z</time>
      </trkpt>
      <trkpt lat="42.90161" lon="0.77027">
        <ele>1816</ele>
        <time>2016-08-28T12:12:36Z</time>
      </trkpt>
      <trkpt lat="42.90168" lon="0.77021">
        <ele>1814</ele>
        <time>2016-08-28T12:12:54Z</time>
      </trkpt>
      <trkpt lat="42.90177" lon="0.77022">
        <ele>1810</ele>
        <time>2016-08-28T12:13:06Z</time>
      </trkpt>
      <trkpt lat="42.90178" lon="0.77012">
        <ele>1810</ele>
        <time>2016-08-28T12:13:21Z</time>
      </trkpt>
      <trkpt lat="42.90185" lon="0.77006">
        <ele>1809</ele>
        <time>2016-08-28T12:13:37Z</time>
      </trkpt>
      <trkpt lat="42.90192" lon="0.77007">
        <ele>1806</ele>
        <time>2016-08-28T12:14:02Z</time>
      </trkpt>
      <trkpt lat="42.90199" lon="0.77013">
        <ele>1807</ele>
        <time>2016-08-28T12:14:13Z</time>
      </trkpt>
      <trkpt lat="42.90206" lon="0.77013">
        <ele>1804</ele>
        <time>2016-08-28T12:14:29Z</time>
      </trkpt>
      <trkpt lat="42.90214" lon="0.77014">
        <ele>1798</ele>
        <time>2016-08-28T12:14:39Z</time>
      </trkpt>
      <trkpt lat="42.90222" lon="0.77015">
        <ele>1797</ele>
        <time>2016-08-28T12:14:52Z</time>
      </trkpt>
      <trkpt lat="42.90229" lon="0.77014">
        <ele>1794</ele>
        <time>2016-08-28T12:15:30Z</time>
      </trkpt>
      <trkpt lat="42.90237" lon="0.77013">
        <ele>1791</ele>
        <time>2016-08-28T12:15:40Z</time>
      </trkpt>
      <trkpt lat="42.90244" lon="0.77011">
        <ele>1788</ele>
        <time>2016-08-28T12:15:55Z</time>
      </trkpt>
      <trkpt lat="42.90251" lon="0.77014">
        <ele>1786</ele>
        <time>2016-08-28T12:16:08Z</time>
      </trkpt>
      <trkpt lat="42.90258" lon="0.77015">
        <ele>1784</ele>
        <time>2016-08-28T12:16:22Z</time>
      </trkpt>
      <trkpt lat="42.90266" lon="0.77013">
        <ele>1782</ele>
        <time>2016-08-28T12:16:33Z</time>
      </trkpt>
      <trkpt lat="42.90273" lon="0.77009">
        <ele>1783</ele>
        <time>2016-08-28T12:16:44Z</time>
      </trkpt>
      <trkpt lat="42.90281" lon="0.77008">
        <ele>1779</ele>
        <time>2016-08-28T12:16:55Z</time>
      </trkpt>
      <trkpt lat="42.90287" lon="0.77013">
        <ele>1778</ele>
        <time>2016-08-28T12:17:05Z</time>
      </trkpt>
      <trkpt lat="42.90291" lon="0.77022">
        <ele>1780</ele>
        <time>2016-08-28T12:17:19Z</time>
      </trkpt>
      <trkpt lat="42.90294" lon="0.77032">
        <ele>1781</ele>
        <time>2016-08-28T12:17:27Z</time>
      </trkpt>
      <trkpt lat="42.90296" lon="0.77045">
        <ele>1783</ele>
        <time>2016-08-28T12:17:39Z</time>
      </trkpt>
      <trkpt lat="42.90294" lon="0.77055">
        <ele>1782</ele>
        <time>2016-08-28T12:17:51Z</time>
      </trkpt>
      <trkpt lat="42.90291" lon="0.77064">
        <ele>1778</ele>
        <time>2016-08-28T12:18:06Z</time>
      </trkpt>
      <trkpt lat="42.90288" lon="0.77074">
        <ele>1774</ele>
        <time>2016-08-28T12:18:23Z</time>
      </trkpt>
      <trkpt lat="42.90285" lon="0.77083">
        <ele>1772</ele>
        <time>2016-08-28T12:18:35Z</time>
      </trkpt>
      <trkpt lat="42.90281" lon="0.77092">
        <ele>1772</ele>
        <time>2016-08-28T12:18:46Z</time>
      </trkpt>
      <trkpt lat="42.90279" lon="0.77101">
        <ele>1771</ele>
        <time>2016-08-28T12:18:54Z</time>
      </trkpt>
      <trkpt lat="42.90278" lon="0.77111">
        <ele>1770</ele>
        <time>2016-08-28T12:19:01Z</time>
      </trkpt>
      <trkpt lat="42.90278" lon="0.77121">
        <ele>1770</ele>
        <time>2016-08-28T12:19:09Z</time>
      </trkpt>
      <trkpt lat="42.90277" lon="0.77132">
        <ele>1770</ele>
        <time>2016-08-28T12:19:17Z</time>
      </trkpt>
      <trkpt lat="42.90276" lon="0.77142">
        <ele>1770</ele>
        <time>2016-08-28T12:19:27Z</time>
      </trkpt>
      <trkpt lat="42.90282" lon="0.77149">
        <ele>1765</ele>
        <time>2016-08-28T12:23:14Z</time>
      </trkpt>
      <trkpt lat="42.90289" lon="0.77151">
        <ele>1764</ele>
        <time>2016-08-28T12:23:43Z</time>
      </trkpt>
      <trkpt lat="42.90295" lon="0.77157">
        <ele>1761</ele>
        <time>2016-08-28T12:24:04Z</time>
      </trkpt>
      <trkpt lat="42.90302" lon="0.77163">
        <ele>1758</ele>
        <time>2016-08-28T12:24:41Z</time>
      </trkpt>
      <trkpt lat="42.90303" lon="0.77173">
        <ele>1756</ele>
        <time>2016-08-28T12:24:48Z</time>
      </trkpt>
      <trkpt lat="42.90303" lon="0.77183">
        <ele>1754</ele>
        <time>2016-08-28T12:25:00Z</time>
      </trkpt>
      <trkpt lat="42.9031" lon="0.77187">
        <ele>1751</ele>
        <time>2016-08-28T12:25:20Z</time>
      </trkpt>
      <trkpt lat="42.90315" lon="0.77194">
        <ele>1748</ele>
        <time>2016-08-28T12:25:39Z</time>
      </trkpt>
      <trkpt lat="42.90319" lon="0.77203">
        <ele>1746</ele>
        <time>2016-08-28T12:25:52Z</time>
      </trkpt>
      <trkpt lat="42.90325" lon="0.7721">
        <ele>1743</ele>
        <time>2016-08-28T12:26:12Z</time>
      </trkpt>
      <trkpt lat="42.90328" lon="0.77219">
        <ele>1742</ele>
        <time>2016-08-28T12:26:21Z</time>
      </trkpt>
      <trkpt lat="42.90333" lon="0.77227">
        <ele>1740</ele>
        <time>2016-08-28T12:26:29Z</time>
      </trkpt>
      <trkpt lat="42.90337" lon="0.77236">
        <ele>1739</ele>
        <time>2016-08-28T12:26:37Z</time>
      </trkpt>
      <trkpt lat="42.90339" lon="0.77246">
        <ele>1739</ele>
        <time>2016-08-28T12:26:45Z</time>
      </trkpt>
      <trkpt lat="42.90343" lon="0.77255">
        <ele>1738</ele>
        <time>2016-08-28T12:26:53Z</time>
      </trkpt>
      <trkpt lat="42.90349" lon="0.77263">
        <ele>1735</ele>
        <time>2016-08-28T12:27:01Z</time>
      </trkpt>
      <trkpt lat="42.90353" lon="0.77272">
        <ele>1733</ele>
        <time>2016-08-28T12:27:08Z</time>
      </trkpt>
      <trkpt lat="42.9036" lon="0.77278">
        <ele>1731</ele>
        <time>2016-08-28T12:27:16Z</time>
      </trkpt>
      <trkpt lat="42.90364" lon="0.77286">
        <ele>1735</ele>
        <time>2016-08-28T12:27:29Z</time>
      </trkpt>
      <trkpt lat="42.9037" lon="0.77295">
        <ele>1733</ele>
        <time>2016-08-28T12:33:34Z</time>
      </trkpt>
      <trkpt lat="42.90376" lon="0.77289">
        <ele>1730</ele>
        <time>2016-08-28T12:36:16Z</time>
      </trkpt>
      <trkpt lat="42.90384" lon="0.77288">
        <ele>1730</ele>
        <time>2016-08-28T12:36:43Z</time>
      </trkpt>
      <trkpt lat="42.90391" lon="0.77285">
        <ele>1728</ele>
        <time>2016-08-28T12:37:00Z</time>
      </trkpt>
      <trkpt lat="42.90397" lon="0.77277">
        <ele>1726</ele>
        <time>2016-08-28T12:37:13Z</time>
      </trkpt>
      <trkpt lat="42.90402" lon="0.7727">
        <ele>1724</ele>
        <time>2016-08-28T12:37:43Z</time>
      </trkpt>
      <trkpt lat="42.90408" lon="0.77263">
        <ele>1722</ele>
        <time>2016-08-28T12:37:54Z</time>
      </trkpt>
      <trkpt lat="42.90415" lon="0.77259">
        <ele>1722</ele>
        <time>2016-08-28T12:38:06Z</time>
      </trkpt>
      <trkpt lat="42.90422" lon="0.77251">
        <ele>1718</ele>
        <time>2016-08-28T12:38:17Z</time>
      </trkpt>
      <trkpt lat="42.90428" lon="0.77246">
        <ele>1714</ele>
        <time>2016-08-28T12:38:28Z</time>
      </trkpt>
      <trkpt lat="42.90436" lon="0.77243">
        <ele>1716</ele>
        <time>2016-08-28T12:38:38Z</time>
      </trkpt>
      <trkpt lat="42.90442" lon="0.77237">
        <ele>1715</ele>
        <time>2016-08-28T12:38:47Z</time>
      </trkpt>
      <trkpt lat="42.90449" lon="0.77233">
        <ele>1710</ele>
        <time>2016-08-28T12:38:59Z</time>
      </trkpt>
      <trkpt lat="42.90457" lon="0.77226">
        <ele>1709</ele>
        <time>2016-08-28T12:39:09Z</time>
      </trkpt>
      <trkpt lat="42.90464" lon="0.7722">
        <ele>1708</ele>
        <time>2016-08-28T12:39:22Z</time>
      </trkpt>
      <trkpt lat="42.90471" lon="0.77218">
        <ele>1705</ele>
        <time>2016-08-28T12:39:33Z</time>
      </trkpt>
      <trkpt lat="42.90479" lon="0.77215">
        <ele>1702</ele>
        <time>2016-08-28T12:39:47Z</time>
      </trkpt>
      <trkpt lat="42.90485" lon="0.7721">
        <ele>1700</ele>
        <time>2016-08-28T12:39:55Z</time>
      </trkpt>
      <trkpt lat="42.9049" lon="0.77201">
        <ele>1699</ele>
        <time>2016-08-28T12:40:05Z</time>
      </trkpt>
      <trkpt lat="42.90495" lon="0.77194">
        <ele>1697</ele>
        <time>2016-08-28T12:40:14Z</time>
      </trkpt>
      <trkpt lat="42.90501" lon="0.77189">
        <ele>1695</ele>
        <time>2016-08-28T12:40:23Z</time>
      </trkpt>
      <trkpt lat="42.90507" lon="0.77182">
        <ele>1695</ele>
        <time>2016-08-28T12:40:33Z</time>
      </trkpt>
      <trkpt lat="42.90513" lon="0.77175">
        <ele>1690</ele>
        <time>2016-08-28T12:40:42Z</time>
      </trkpt>
      <trkpt lat="42.90519" lon="0.7717">
        <ele>1687</ele>
        <time>2016-08-28T12:40:52Z</time>
      </trkpt>
      <trkpt lat="42.90526" lon="0.77164">
        <ele>1685</ele>
        <time>2016-08-28T12:41:02Z</time>
      </trkpt>
      <trkpt lat="42.9053" lon="0.77157">
        <ele>1682</ele>
        <time>2016-08-28T12:41:17Z</time>
      </trkpt>
      <trkpt lat="42.90537" lon="0.77153">
        <ele>1679</ele>
        <time>2016-08-28T12:47:14Z</time>
      </trkpt>
      <trkpt lat="42.90544" lon="0.7715">
        <ele>1677</ele>
        <time>2016-08-28T12:47:26Z</time>
      </trkpt>
      <trkpt lat="42.90552" lon="0.77146">
        <ele>1673</ele>
        <time>2016-08-28T12:47:36Z</time>
      </trkpt>
      <trkpt lat="42.90559" lon="0.77142">
        <ele>1674</ele>
        <time>2016-08-28T12:47:46Z</time>
      </trkpt>
      <trkpt lat="42.90566" lon="0.77136">
        <ele>1673</ele>
        <time>2016-08-28T12:47:56Z</time>
      </trkpt>
      <trkpt lat="42.90572" lon="0.77129">
        <ele>1672</ele>
        <time>2016-08-28T12:48:06Z</time>
      </trkpt>
      <trkpt lat="42.90578" lon="0.77121">
        <ele>1670</ele>
        <time>2016-08-28T12:48:15Z</time>
      </trkpt>
      <trkpt lat="42.90584" lon="0.77115">
        <ele>1669</ele>
        <time>2016-08-28T12:48:24Z</time>
      </trkpt>
      <trkpt lat="42.9059" lon="0.77109">
        <ele>1670</ele>
        <time>2016-08-28T12:48:33Z</time>
      </trkpt>
      <trkpt lat="42.90596" lon="0.77105">
        <ele>1667</ele>
        <time>2016-08-28T12:48:45Z</time>
      </trkpt>
      <trkpt lat="42.90602" lon="0.77098">
        <ele>1665</ele>
        <time>2016-08-28T12:48:53Z</time>
      </trkpt>
      <trkpt lat="42.90605" lon="0.77089">
        <ele>1665</ele>
        <time>2016-08-28T12:49:04Z</time>
      </trkpt>
      <trkpt lat="42.9061" lon="0.77082">
        <ele>1665</ele>
        <time>2016-08-28T12:49:42Z</time>
      </trkpt>
      <trkpt lat="42.90617" lon="0.77077">
        <ele>1663</ele>
        <time>2016-08-28T12:49:53Z</time>
      </trkpt>
      <trkpt lat="42.90624" lon="0.77073">
        <ele>1663</ele>
        <time>2016-08-28T12:50:01Z</time>
      </trkpt>
      <trkpt lat="42.9063" lon="0.77066">
        <ele>1662</ele>
        <time>2016-08-28T12:50:10Z</time>
      </trkpt>
      <trkpt lat="42.90636" lon="0.7706">
        <ele>1661</ele>
        <time>2016-08-28T12:50:21Z</time>
      </trkpt>
      <trkpt lat="42.90643" lon="0.77053">
        <ele>1658</ele>
        <time>2016-08-28T12:50:33Z</time>
      </trkpt>
      <trkpt lat="42.90648" lon="0.77046">
        <ele>1657</ele>
        <time>2016-08-28T12:50:43Z</time>
      </trkpt>
      <trkpt lat="42.90655" lon="0.77042">
        <ele>1656</ele>
        <time>2016-08-28T12:50:55Z</time>
      </trkpt>
      <trkpt lat="42.90661" lon="0.77036">
        <ele>1657</ele>
        <time>2016-08-28T12:51:03Z</time>
      </trkpt>
      <trkpt lat="42.90668" lon="0.77031">
        <ele>1654</ele>
        <time>2016-08-28T12:51:18Z</time>
      </trkpt>
      <trkpt lat="42.90675" lon="0.77032">
        <ele>1644</ele>
        <time>2016-08-28T12:51:37Z</time>
      </trkpt>
      <trkpt lat="42.90683" lon="0.77032">
        <ele>1640</ele>
        <time>2016-08-28T12:51:51Z</time>
      </trkpt>
      <trkpt lat="42.9069" lon="0.77029">
        <ele>1638</ele>
        <time>2016-08-28T12:52:03Z</time>
      </trkpt>
      <trkpt lat="42.90698" lon="0.7703">
        <ele>1636</ele>
        <time>2016-08-28T12:52:20Z</time>
      </trkpt>
      <trkpt lat="42.90705" lon="0.77031">
        <ele>1636</ele>
        <time>2016-08-28T12:52:34Z</time>
      </trkpt>
      <trkpt lat="42.90713" lon="0.77029">
        <ele>1635</ele>
        <time>2016-08-28T12:52:49Z</time>
      </trkpt>
      <trkpt lat="42.9072" lon="0.77031">
        <ele>1633</ele>
        <time>2016-08-28T12:53:01Z</time>
      </trkpt>
      <trkpt lat="42.90728" lon="0.77029">
        <ele>1632</ele>
        <time>2016-08-28T12:53:14Z</time>
      </trkpt>
      <trkpt lat="42.90736" lon="0.77031">
        <ele>1629</ele>
        <time>2016-08-28T12:54:47Z</time>
      </trkpt>
      <trkpt lat="42.90743" lon="0.7703">
        <ele>1631</ele>
        <time>2016-08-28T12:55:03Z</time>
      </trkpt>
      <trkpt lat="42.9075" lon="0.77026">
        <ele>1622</ele>
        <time>2016-08-28T12:55:24Z</time>
      </trkpt>
      <trkpt lat="42.90758" lon="0.77027">
        <ele>1619</ele>
        <time>2016-08-28T12:55:38Z</time>
      </trkpt>
      <trkpt lat="42.90766" lon="0.77027">
        <ele>1619</ele>
        <time>2016-08-28T12:55:54Z</time>
      </trkpt>
      <trkpt lat="42.90773" lon="0.77024">
        <ele>1616</ele>
        <time>2016-08-28T12:56:18Z</time>
      </trkpt>
      <trkpt lat="42.9078" lon="0.7702">
        <ele>1613</ele>
        <time>2016-08-28T12:59:11Z</time>
      </trkpt>
      <trkpt lat="42.90786" lon="0.77025">
        <ele>1613</ele>
        <time>2016-08-28T12:59:27Z</time>
      </trkpt>
      <trkpt lat="42.90794" lon="0.77027">
        <ele>1610</ele>
        <time>2016-08-28T12:59:35Z</time>
      </trkpt>
      <trkpt lat="42.90801" lon="0.77027">
        <ele>1613</ele>
        <time>2016-08-28T12:59:47Z</time>
      </trkpt>
      <trkpt lat="42.90808" lon="0.77022">
        <ele>1608</ele>
        <time>2016-08-28T13:00:02Z</time>
      </trkpt>
      <trkpt lat="42.90815" lon="0.7702">
        <ele>1605</ele>
        <time>2016-08-28T13:00:14Z</time>
      </trkpt>
      <trkpt lat="42.90822" lon="0.77021">
        <ele>1607</ele>
        <time>2016-08-28T13:00:22Z</time>
      </trkpt>
      <trkpt lat="42.90829" lon="0.77016">
        <ele>1604</ele>
        <time>2016-08-28T13:00:29Z</time>
      </trkpt>
      <trkpt lat="42.90836" lon="0.77012">
        <ele>1607</ele>
        <time>2016-08-28T13:00:38Z</time>
      </trkpt>
      <trkpt lat="42.90841" lon="0.77005">
        <ele>1603</ele>
        <time>2016-08-28T13:00:44Z</time>
      </trkpt>
      <trkpt lat="42.90848" lon="0.76999">
        <ele>1601</ele>
        <time>2016-08-28T13:00:52Z</time>
      </trkpt>
      <trkpt lat="42.90855" lon="0.76995">
        <ele>1598</ele>
        <time>2016-08-28T13:01:01Z</time>
      </trkpt>
      <trkpt lat="42.90861" lon="0.76989">
        <ele>1596</ele>
        <time>2016-08-28T13:01:10Z</time>
      </trkpt>
      <trkpt lat="42.90868" lon="0.76984">
        <ele>1595</ele>
        <time>2016-08-28T13:01:18Z</time>
      </trkpt>
      <trkpt lat="42.90874" lon="0.76979">
        <ele>1588</ele>
        <time>2016-08-28T13:01:29Z</time>
      </trkpt>
      <trkpt lat="42.90879" lon="0.76971">
        <ele>1590</ele>
        <time>2016-08-28T13:01:41Z</time>
      </trkpt>
      <trkpt lat="42.90884" lon="0.76962">
        <ele>1591</ele>
        <time>2016-08-28T13:01:51Z</time>
      </trkpt>
      <trkpt lat="42.90889" lon="0.76955">
        <ele>1591</ele>
        <time>2016-08-28T13:02:00Z</time>
      </trkpt>
      <trkpt lat="42.90894" lon="0.76947">
        <ele>1591</ele>
        <time>2016-08-28T13:02:12Z</time>
      </trkpt>
      <trkpt lat="42.90897" lon="0.76938">
        <ele>1589</ele>
        <time>2016-08-28T13:02:24Z</time>
      </trkpt>
      <trkpt lat="42.90892" lon="0.76931">
        <ele>1589</ele>
        <time>2016-08-28T13:02:34Z</time>
      </trkpt>
      <trkpt lat="42.90897" lon="0.76924">
        <ele>1589</ele>
        <time>2016-08-28T13:02:48Z</time>
      </trkpt>
      <trkpt lat="42.90902" lon="0.76917">
        <ele>1586</ele>
        <time>2016-08-28T13:03:00Z</time>
      </trkpt>
      <trkpt lat="42.90908" lon="0.7691">
        <ele>1584</ele>
        <time>2016-08-28T13:03:11Z</time>
      </trkpt>
      <trkpt lat="42.90912" lon="0.76901">
        <ele>1583</ele>
        <time>2016-08-28T13:03:23Z</time>
      </trkpt>
      <trkpt lat="42.90919" lon="0.769">
        <ele>1581</ele>
        <time>2016-08-28T13:03:35Z</time>
      </trkpt>
      <trkpt lat="42.90924" lon="0.76892">
        <ele>1581</ele>
        <time>2016-08-28T13:03:47Z</time>
      </trkpt>
      <trkpt lat="42.9093" lon="0.76888">
        <ele>1578</ele>
        <time>2016-08-28T13:04:00Z</time>
      </trkpt>
      <trkpt lat="42.90936" lon="0.76881">
        <ele>1576</ele>
        <time>2016-08-28T13:04:14Z</time>
      </trkpt>
      <trkpt lat="42.90943" lon="0.76879">
        <ele>1572</ele>
        <time>2016-08-28T13:04:27Z</time>
      </trkpt>
      <trkpt lat="42.90951" lon="0.76878">
        <ele>1570</ele>
        <time>2016-08-28T13:04:40Z</time>
      </trkpt>
      <trkpt lat="42.90958" lon="0.76875">
        <ele>1567</ele>
        <time>2016-08-28T13:04:54Z</time>
      </trkpt>
      <trkpt lat="42.90965" lon="0.76876">
        <ele>1570</ele>
        <time>2016-08-28T13:05:14Z</time>
      </trkpt>
      <trkpt lat="42.90972" lon="0.76872">
        <ele>1564</ele>
        <time>2016-08-28T13:05:28Z</time>
      </trkpt>
      <trkpt lat="42.9098" lon="0.76871">
        <ele>1559</ele>
        <time>2016-08-28T13:05:45Z</time>
      </trkpt>
      <trkpt lat="42.90986" lon="0.76867">
        <ele>1555</ele>
        <time>2016-08-28T13:06:00Z</time>
      </trkpt>
      <trkpt lat="42.90994" lon="0.76864">
        <ele>1554</ele>
        <time>2016-08-28T13:06:13Z</time>
      </trkpt>
      <trkpt lat="42.91" lon="0.76858">
        <ele>1551</ele>
        <time>2016-08-28T13:06:26Z</time>
      </trkpt>
      <trkpt lat="42.91006" lon="0.76852">
        <ele>1551</ele>
        <time>2016-08-28T13:06:36Z</time>
      </trkpt>
      <trkpt lat="42.91014" lon="0.76853">
        <ele>1549</ele>
        <time>2016-08-28T13:06:44Z</time>
      </trkpt>
      <trkpt lat="42.9102" lon="0.76847">
        <ele>1547</ele>
        <time>2016-08-28T13:08:12Z</time>
      </trkpt>
      <trkpt lat="42.91024" lon="0.76838">
        <ele>1547</ele>
        <time>2016-08-28T13:08:22Z</time>
      </trkpt>
      <trkpt lat="42.91026" lon="0.76829">
        <ele>1547</ele>
        <time>2016-08-28T13:08:29Z</time>
      </trkpt>
      <trkpt lat="42.91031" lon="0.7682">
        <ele>1547</ele>
        <time>2016-08-28T13:08:38Z</time>
      </trkpt>
      <trkpt lat="42.91031" lon="0.7681">
        <ele>1546</ele>
        <time>2016-08-28T13:08:51Z</time>
      </trkpt>
      <trkpt lat="42.91032" lon="0.76799">
        <ele>1550</ele>
        <time>2016-08-28T13:09:02Z</time>
      </trkpt>
      <trkpt lat="42.91039" lon="0.76781">
        <ele>1546</ele>
        <time>2016-08-28T13:09:22Z</time>
      </trkpt>
      <trkpt lat="42.91041" lon="0.76772">
        <ele>1547</ele>
        <time>2016-08-28T13:09:38Z</time>
      </trkpt>
      <trkpt lat="42.91045" lon="0.76764">
        <ele>1545</ele>
        <time>2016-08-28T13:09:44Z</time>
      </trkpt>
      <trkpt lat="42.91049" lon="0.76755">
        <ele>1548</ele>
        <time>2016-08-28T13:09:53Z</time>
      </trkpt>
      <trkpt lat="42.91053" lon="0.76745">
        <ele>1541</ele>
        <time>2016-08-28T13:10:07Z</time>
      </trkpt>
      <trkpt lat="42.91056" lon="0.76736">
        <ele>1537</ele>
        <time>2016-08-28T13:10:16Z</time>
      </trkpt>
      <trkpt lat="42.91059" lon="0.76726">
        <ele>1540</ele>
        <time>2016-08-28T13:10:29Z</time>
      </trkpt>
      <trkpt lat="42.91065" lon="0.7672">
        <ele>1542</ele>
        <time>2016-08-28T13:10:42Z</time>
      </trkpt>
      <trkpt lat="42.91068" lon="0.7671">
        <ele>1536</ele>
        <time>2016-08-28T13:10:51Z</time>
      </trkpt>
      <trkpt lat="42.91071" lon="0.767">
        <ele>1531</ele>
        <time>2016-08-28T13:11:04Z</time>
      </trkpt>
      <trkpt lat="42.91073" lon="0.7669">
        <ele>1530</ele>
        <time>2016-08-28T13:11:12Z</time>
      </trkpt>
      <trkpt lat="42.91077" lon="0.7668">
        <ele>1528</ele>
        <time>2016-08-28T13:11:20Z</time>
      </trkpt>
      <trkpt lat="42.91082" lon="0.76672">
        <ele>1527</ele>
        <time>2016-08-28T13:11:34Z</time>
      </trkpt>
      <trkpt lat="42.91085" lon="0.76662">
        <ele>1525</ele>
        <time>2016-08-28T13:11:42Z</time>
      </trkpt>
      <trkpt lat="42.91089" lon="0.76652">
        <ele>1526</ele>
        <time>2016-08-28T13:11:52Z</time>
      </trkpt>
      <trkpt lat="42.91093" lon="0.76642">
        <ele>1524</ele>
        <time>2016-08-28T13:11:59Z</time>
      </trkpt>
      <trkpt lat="42.91097" lon="0.76633">
        <ele>1521</ele>
        <time>2016-08-28T13:12:05Z</time>
      </trkpt>
      <trkpt lat="42.91101" lon="0.76623">
        <ele>1517</ele>
        <time>2016-08-28T13:12:10Z</time>
      </trkpt>
      <trkpt lat="42.91106" lon="0.76615">
        <ele>1519</ele>
        <time>2016-08-28T13:12:17Z</time>
      </trkpt>
    </trkseg>
  </trk>
</gpx>